createdAt,value
2022-11-29T00:01:32.019Z,101215.22
2022-11-29T00:03:59.780Z,101218.66
2022-11-29T00:06:32.511Z,101211.81
2022-11-29T00:09:06.103Z,101218.19
2022-11-29T00:11:54.587Z,101223.09
2022-11-29T00:14:23.517Z,101212.50
2022-11-29T00:16:52.986Z,101213.28
2022-11-29T00:19:20.738Z,101217.94
2022-11-29T00:21:47.653Z,101223.66
2022-11-29T00:24:14.755Z,101219.19
2022-11-29T00:26:41.816Z,101221.28
2022-11-29T00:29:10.855Z,101217.25
2022-11-29T00:31:37.962Z,101216.56
2022-11-29T00:34:09.035Z,101222.31
2022-11-29T00:36:35.951Z,101225.72
2022-11-29T00:39:04.951Z,101222.84
2022-11-29T00:41:32.397Z,101219.09
2022-11-29T00:43:59.321Z,101223.66
2022-11-29T00:46:26.442Z,101225.47
2022-11-29T00:48:53.527Z,101221.16
2022-11-29T00:51:20.352Z,101216.03
2022-11-29T00:53:47.338Z,101217.22
2022-11-29T00:56:14.485Z,101220.06
2022-11-29T00:58:43.484Z,101220.47
2022-11-29T01:01:11.581Z,101222.25
2022-11-29T01:03:38.602Z,101224.06
2022-11-29T01:06:08.585Z,101226.50
2022-11-29T01:08:36.008Z,101229.06
2022-11-29T01:11:10.823Z,101227.16
2022-11-29T01:13:37.935Z,101224.16
2022-11-29T01:16:06.314Z,101228.59
2022-11-29T01:18:35.064Z,101224.41
2022-11-29T01:21:06.339Z,101233.50
2022-11-29T01:23:35.174Z,101236.19
2022-11-29T01:26:12.257Z,101235.44
2022-11-29T01:28:40.738Z,101229.88
2022-11-29T01:31:08.670Z,101241.59
2022-11-29T01:33:36.676Z,101233.41
2022-11-29T01:36:05.526Z,101240.69
2022-11-29T01:38:33.270Z,101240.34
2022-11-29T01:41:07.756Z,101239.09
2022-11-29T01:43:53.329Z,101247.19
2022-11-29T01:46:20.213Z,101243.97
2022-11-29T01:48:48.431Z,101245.22
2022-11-29T01:51:15.836Z,101241.72
2022-11-29T01:53:42.961Z,101239.31
2022-11-29T01:56:10.725Z,101250.59
2022-11-29T01:58:37.700Z,101253.22
2022-11-29T02:01:04.608Z,101251.03
2022-11-29T02:03:31.495Z,101250.13
2022-11-29T02:05:59.490Z,101247.59
2022-11-29T02:08:40.659Z,101249.44
2022-11-29T02:11:31.513Z,101245.22
2022-11-29T02:14:10.415Z,101253.31
2022-11-29T02:16:46.705Z,101245.91
2022-11-29T02:19:32.228Z,101255.91
2022-11-29T02:22:54.979Z,101250.91
2022-11-29T02:25:53.139Z,101255.47
2022-11-29T02:28:51.114Z,101250.59
2022-11-29T02:31:40.449Z,101264.56
2022-11-29T02:34:18.048Z,101265.84
2022-11-29T02:36:51.510Z,101265.03
2022-11-29T02:39:30.403Z,101273.50
2022-11-29T02:42:12.381Z,101277.56
2022-11-29T02:45:15.251Z,101274.72
2022-11-29T02:48:10.576Z,101271.66
2022-11-29T02:51:12.570Z,101278.38
2022-11-29T02:53:51.193Z,101279.16
2022-11-29T02:56:34.200Z,101280.09
2022-11-29T02:59:20.307Z,101282.03
2022-11-29T03:02:03.631Z,101283.19
2022-11-29T03:04:54.435Z,101285.88
2022-11-29T03:07:47.913Z,101285.44
2022-11-29T03:10:29.824Z,101292.25
2022-11-29T03:12:59.665Z,101289.22
2022-11-29T03:15:38.684Z,101285.66
2022-11-29T03:18:17.662Z,101294.09
2022-11-29T03:20:47.849Z,101298.31
2022-11-29T03:23:44.007Z,101304.81
2022-11-29T03:26:17.414Z,101311.06
2022-11-29T03:29:07.252Z,101312.97
2022-11-29T03:31:38.541Z,101310.25
2022-11-29T03:34:24.345Z,101321.53
2022-11-29T03:37:21.511Z,101329.28
2022-11-29T03:40:04.809Z,101329.69
2022-11-29T03:42:40.510Z,101337.00
2022-11-29T03:45:10.879Z,101331.16
2022-11-29T03:48:02.139Z,101335.81
2022-11-29T03:50:41.310Z,101329.78
2022-11-29T03:53:23.228Z,101332.19
2022-11-29T03:55:58.685Z,101333.06
2022-11-29T03:58:39.179Z,101339.09
2022-11-29T04:01:49.639Z,101333.88
2022-11-29T04:04:38.331Z,101340.94
2022-11-29T04:07:05.323Z,101346.81
2022-11-29T04:09:35.606Z,101341.25
2022-11-29T04:12:23.730Z,101344.00
2022-11-29T04:15:32.609Z,101341.81
2022-11-29T04:18:41.623Z,101339.69
2022-11-29T04:21:40.937Z,101344.84
2022-11-29T04:24:26.314Z,101352.06
2022-11-29T04:27:27.689Z,101355.63
2022-11-29T04:30:02.589Z,101352.78
2022-11-29T04:33:07.538Z,101361.78
2022-11-29T04:36:12.117Z,101371.00
2022-11-29T04:39:00.802Z,101365.28
2022-11-29T04:41:46.582Z,101368.72
2022-11-29T04:44:37.334Z,101368.78
2022-11-29T04:47:41.893Z,101371.41
2022-11-29T04:50:24.752Z,101366.63
2022-11-29T04:53:10.645Z,101377.31
2022-11-29T04:56:01.122Z,101378.63
2022-11-29T04:58:53.237Z,101381.03
2022-11-29T05:02:05.804Z,101379.63
2022-11-29T05:04:54.645Z,101381.25
2022-11-29T05:07:44.404Z,101377.47
2022-11-29T05:10:29.609Z,101376.22
2022-11-29T05:13:26.222Z,101391.34
2022-11-29T05:16:06.801Z,101390.56
2022-11-29T05:18:56.880Z,101385.53
2022-11-29T05:21:32.107Z,101387.47
2022-11-29T05:24:08.182Z,101398.56
2022-11-29T05:26:44.130Z,101400.16
2022-11-29T05:29:22.013Z,101409.03
2022-11-29T05:32:19.400Z,101407.44
2022-11-29T05:35:12.272Z,101406.34
2022-11-29T05:37:57.342Z,101409.31
2022-11-29T05:40:46.062Z,101415.72
2022-11-29T05:43:50.410Z,101415.72
2022-11-29T05:46:42.779Z,101417.69
2022-11-29T05:49:29.486Z,101417.34
2022-11-29T05:52:31.324Z,101430.44
2022-11-29T05:55:14.905Z,101430.78
2022-11-29T05:57:59.042Z,101428.38
2022-11-29T06:00:46.036Z,101428.94
2022-11-29T06:03:29.941Z,101427.94
2022-11-29T06:06:07.068Z,101443.53
2022-11-29T06:08:55.438Z,101446.72
2022-11-29T06:11:38.666Z,101455.75
2022-11-29T06:14:22.658Z,101450.94
2022-11-29T06:17:27.385Z,101454.56
2022-11-29T06:20:15.336Z,101451.16
2022-11-29T06:23:16.136Z,101463.94
2022-11-29T06:26:17.945Z,101471.63
2022-11-29T06:28:57.486Z,101469.84
2022-11-29T06:31:38.494Z,101469.00
2022-11-29T06:34:12.136Z,101475.38
2022-11-29T06:36:50.644Z,101465.69
2022-11-29T06:39:17.852Z,101472.34
2022-11-29T06:41:45.071Z,101471.53
2022-11-29T06:44:12.212Z,101474.16
2022-11-29T06:47:04.779Z,101479.59
2022-11-29T06:49:54.378Z,101480.41
2022-11-29T06:53:00.330Z,101488.13
2022-11-29T06:55:56.471Z,101490.66
2022-11-29T06:58:46.741Z,101489.28
2022-11-29T07:01:13.602Z,101486.44
2022-11-29T07:04:02.893Z,101498.53
2022-11-29T07:06:32.041Z,101494.97
2022-11-29T07:09:04.257Z,101495.31
2022-11-29T07:11:31.460Z,101496.94
2022-11-29T07:13:58.776Z,101504.63
2022-11-29T07:16:57.030Z,101510.44
2022-11-29T07:19:42.325Z,101516.25
2022-11-29T07:22:32.153Z,101508.41
2022-11-29T07:25:29.194Z,101512.19
2022-11-29T07:28:22.315Z,101514.25
2022-11-29T07:30:58.136Z,101521.72
2022-11-29T07:33:49.304Z,101528.53
2022-11-29T07:36:40.764Z,101524.88
2022-11-29T07:39:21.488Z,101520.28
2022-11-29T07:42:10.355Z,101529.16
2022-11-29T07:45:04.826Z,101535.22
2022-11-29T07:47:35.670Z,101537.66
2022-11-29T07:50:03.668Z,101548.16
2022-11-29T07:52:30.790Z,101547.13
2022-11-29T07:54:57.720Z,101542.91
2022-11-29T07:57:24.646Z,101545.84
2022-11-29T07:59:51.572Z,101544.59
2022-11-29T08:02:31.554Z,101552.94
2022-11-29T08:04:58.638Z,101552.13
2022-11-29T08:07:25.596Z,101558.00
2022-11-29T08:09:52.807Z,101548.31
2022-11-29T08:12:20.011Z,101543.41
2022-11-29T08:14:47.343Z,101559.59
2022-11-29T08:17:14.625Z,101568.88
2022-11-29T08:19:41.512Z,101563.38
2022-11-29T08:22:08.539Z,101568.25
2022-11-29T08:24:35.584Z,101578.44
2022-11-29T08:27:02.613Z,101574.50
2022-11-29T08:29:29.766Z,101576.91
2022-11-29T08:31:56.793Z,101580.69
2022-11-29T08:34:24.945Z,101573.78
2022-11-29T08:36:56.155Z,101576.34
2022-11-29T08:39:23.331Z,101584.44
2022-11-29T08:41:50.452Z,101579.00
2022-11-29T08:44:18.152Z,101581.31
2022-11-29T08:47:14.445Z,101585.16
2022-11-29T08:50:01.171Z,101589.56
2022-11-29T08:52:56.557Z,101594.63
2022-11-29T08:55:27.144Z,101600.72
2022-11-29T08:58:00.329Z,101601.75
2022-11-29T09:00:27.230Z,101602.44
2022-11-29T09:02:54.140Z,101608.75
2022-11-29T09:05:21.109Z,101602.53
2022-11-29T09:07:48.095Z,101613.16
2022-11-29T09:10:15.219Z,101601.22
2022-11-29T09:12:44.170Z,101612.50
2022-11-29T09:15:11.349Z,101615.00
2022-11-29T09:17:38.288Z,101614.38
2022-11-29T09:20:06.080Z,101622.25
2022-11-29T09:22:33.223Z,101629.03
2022-11-29T09:25:00.349Z,101624.75
2022-11-29T09:27:27.393Z,101626.19
2022-11-29T09:29:54.448Z,101633.19
2022-11-29T09:32:21.313Z,101642.13
2022-11-29T09:34:48.566Z,101638.28
2022-11-29T09:37:15.729Z,101637.88
2022-11-29T09:39:42.961Z,101644.59
2022-11-29T09:42:34.885Z,101647.25
2022-11-29T09:45:18.272Z,101647.00
2022-11-29T09:48:23.071Z,101658.44
2022-11-29T09:51:18.023Z,101658.66
2022-11-29T09:54:12.362Z,101661.81
2022-11-29T09:56:47.193Z,101655.97
2022-11-29T09:59:32.578Z,101659.19
2022-11-29T10:02:10.552Z,101660.38
2022-11-29T10:04:46.105Z,101661.94
2022-11-29T10:07:46.316Z,101668.81
2022-11-29T10:10:20.411Z,101666.16
2022-11-29T10:12:51.570Z,101668.41
2022-11-29T10:15:31.378Z,101666.63
2022-11-29T10:18:22.073Z,101666.94
2022-11-29T10:20:53.515Z,101665.91
2022-11-29T10:23:38.416Z,101665.97
2022-11-29T10:26:08.653Z,101668.97
2022-11-29T10:28:37.880Z,101671.59
2022-11-29T10:31:33.121Z,101666.09
2022-11-29T10:34:07.977Z,101663.69
2022-11-29T10:36:50.265Z,101663.53
2022-11-29T10:39:39.487Z,101664.72
2022-11-29T10:42:37.343Z,101656.03
2022-11-29T10:45:17.810Z,101659.66
2022-11-29T10:47:47.745Z,101662.16
2022-11-29T10:50:26.843Z,101666.53
2022-11-29T10:53:10.718Z,101658.19
2022-11-29T10:55:50.757Z,101672.88
2022-11-29T10:58:28.331Z,101665.97
2022-11-29T11:01:06.554Z,101675.13
2022-11-29T11:03:33.685Z,101664.94
2022-11-29T11:06:03.529Z,101663.53
2022-11-29T11:08:32.975Z,101660.06
2022-11-29T11:11:03.063Z,101667.66
2022-11-29T11:13:32.475Z,101658.28
2022-11-29T11:16:09.868Z,101656.78
2022-11-29T11:18:38.300Z,101655.56
2022-11-29T11:21:10.614Z,101659.28
2022-11-29T11:23:45.812Z,101662.16
2022-11-29T11:26:14.684Z,101666.41
2022-11-29T11:28:54.042Z,101666.25
2022-11-29T11:31:34.761Z,101667.38
2022-11-29T11:34:26.410Z,101669.88
2022-11-29T11:37:10.876Z,101664.78
2022-11-29T11:39:37.970Z,101662.16
2022-11-29T11:42:24.411Z,101668.97
2022-11-29T11:44:53.282Z,101668.81
2022-11-29T11:47:27.544Z,101676.16
2022-11-29T11:50:00.480Z,101684.81
2022-11-29T11:52:39.565Z,101676.50
2022-11-29T11:55:28.182Z,101686.03
2022-11-29T11:58:09.267Z,101681.91
2022-11-29T12:01:06.597Z,101685.09
2022-11-29T12:04:02.210Z,101682.50
2022-11-29T12:06:41.958Z,101690.97
2022-11-29T12:09:09.764Z,101686.47
2022-11-29T12:12:04.774Z,101689.50
2022-11-29T12:14:48.610Z,101688.00
2022-11-29T12:17:22.571Z,101683.34
2022-11-29T12:20:05.807Z,101683.03
2022-11-29T12:22:46.591Z,101698.53
2022-11-29T12:25:26.530Z,101698.94
2022-11-29T12:27:53.754Z,101699.63
2022-11-29T12:30:21.131Z,101698.81
2022-11-29T12:33:39.394Z,101706.00
2022-11-29T12:36:48.005Z,101721.22
2022-11-29T12:39:40.110Z,101720.81
2022-11-29T12:42:18.154Z,101724.06
2022-11-29T12:44:48.382Z,101719.13
2022-11-29T12:47:36.863Z,101731.03
2022-11-29T12:50:35.733Z,101721.56
2022-11-29T12:53:11.879Z,101736.22
2022-11-29T12:56:08.028Z,101733.56
2022-11-29T12:59:28.445Z,101733.28
2022-11-29T13:02:20.635Z,101735.09
2022-11-29T13:05:03.400Z,101745.91
2022-11-29T13:07:42.647Z,101736.38
2022-11-29T13:10:29.135Z,101740.88
2022-11-29T13:13:12.989Z,101749.88
2022-11-29T13:16:15.834Z,101746.59
2022-11-29T13:19:02.249Z,101747.56
2022-11-29T13:21:43.931Z,101753.91
2022-11-29T13:24:38.368Z,101748.44
2022-11-29T13:27:25.314Z,101757.88
2022-11-29T13:29:53.780Z,101755.13
2022-11-29T13:33:02.388Z,101754.91
2022-11-29T13:35:50.410Z,101762.72
2022-11-29T13:38:35.838Z,101766.59
2022-11-29T13:41:19.743Z,101768.06
2022-11-29T13:44:20.874Z,101771.59
2022-11-29T13:47:08.723Z,101767.31
2022-11-29T13:49:53.696Z,101766.84
2022-11-29T13:52:23.473Z,101769.41
2022-11-29T13:55:04.159Z,101777.25
2022-11-29T14:00:42.458Z,101779.38
2022-11-29T14:03:19.002Z,101774.16
2022-11-29T14:05:52.988Z,101775.22
2022-11-29T14:08:23.872Z,101783.06
2022-11-29T14:10:55.053Z,101773.53
2022-11-29T14:13:52.927Z,101777.75
2022-11-29T14:16:30.509Z,101777.28
2022-11-29T14:19:09.880Z,101779.09
2022-11-29T14:21:58.740Z,101779.91
2022-11-29T14:24:37.929Z,101781.94
2022-11-29T14:27:07.905Z,101787.53
2022-11-29T14:29:49.643Z,101792.47
2022-11-29T14:32:23.880Z,101788.84
2022-11-29T14:35:12.070Z,101789.06
2022-11-29T14:38:23.084Z,101799.78
2022-11-29T14:41:06.192Z,101801.16
2022-11-29T14:43:37.596Z,101806.66
2022-11-29T14:46:16.744Z,101793.91
2022-11-29T14:48:55.788Z,101794.63
2022-11-29T14:51:26.971Z,101794.56
2022-11-29T14:54:14.806Z,101791.56
2022-11-29T14:56:44.852Z,101788.22
2022-11-29T14:59:49.509Z,101793.66
2022-11-29T15:02:25.594Z,101795.66
2022-11-29T15:04:57.252Z,101798.13
2022-11-29T15:07:30.378Z,101805.72
2022-11-29T15:10:04.804Z,101811.38
2022-11-29T15:12:37.522Z,101813.19
2022-11-29T15:15:07.434Z,101808.16
2022-11-29T15:18:07.379Z,101817.03
2022-11-29T15:20:40.607Z,101809.44
2022-11-29T15:23:17.472Z,101818.06
2022-11-29T15:25:53.984Z,101812.19
2022-11-29T15:28:24.935Z,101813.44
2022-11-29T15:31:10.984Z,101811.03
2022-11-29T15:33:44.399Z,101813.84
2022-11-29T15:36:24.180Z,101824.09
2022-11-29T15:38:55.503Z,101813.22
2022-11-29T15:41:31.085Z,101823.28
2022-11-29T15:44:01.785Z,101826.31
2022-11-29T15:46:32.066Z,101826.72
2022-11-29T15:49:24.687Z,101829.34
2022-11-29T15:51:57.898Z,101824.94
2022-11-29T15:54:38.834Z,101826.34
2022-11-29T15:57:15.977Z,101825.56
2022-11-29T16:00:00.966Z,101832.22
2022-11-29T16:02:35.229Z,101824.94
2022-11-29T16:05:17.716Z,101830.41
2022-11-29T16:07:48.675Z,101834.06
2022-11-29T16:10:23.661Z,101840.47
2022-11-29T16:12:59.362Z,101837.66
2022-11-29T16:15:32.401Z,101827.22
2022-11-29T16:18:12.936Z,101834.25
2022-11-29T16:20:40.576Z,101836.06
2022-11-29T16:23:16.491Z,101834.88
2022-11-29T16:26:14.680Z,101834.44
2022-11-29T16:28:53.270Z,101839.69
2022-11-29T16:31:23.574Z,101833.28
2022-11-29T16:33:52.571Z,101832.88
2022-11-29T16:36:27.338Z,101835.75
2022-11-29T16:39:04.374Z,101832.75
2022-11-29T16:41:35.616Z,101842.41
2022-11-29T16:44:09.975Z,101848.22
2022-11-29T16:46:38.835Z,101847.44
2022-11-29T16:49:35.389Z,101851.66
2022-11-29T16:52:04.112Z,101853.50
2022-11-29T16:54:35.660Z,101852.09
2022-11-29T16:57:06.259Z,101847.44
2022-11-29T16:59:35.098Z,101847.06
2022-11-29T17:02:01.959Z,101849.69
2022-11-29T17:04:29.030Z,101851.28
2022-11-29T17:06:57.155Z,101847.66
2022-11-29T17:09:31.221Z,101857.31
2022-11-29T17:12:02.089Z,101842.22
2022-11-29T17:14:30.158Z,101842.44
2022-11-29T17:16:59.797Z,101848.69
2022-11-29T17:19:29.352Z,101851.28
2022-11-29T17:21:56.717Z,101854.28
2022-11-29T17:24:25.281Z,101855.09
2022-11-29T17:26:52.110Z,101852.91
2022-11-29T17:29:19.188Z,101844.84
2022-11-29T17:31:47.214Z,101845.06
2022-11-29T17:34:14.391Z,101848.69
2022-11-29T17:36:41.755Z,101845.22
2022-11-29T17:39:08.835Z,101851.28
2022-11-29T17:41:35.910Z,101851.88
2022-11-29T17:44:03.932Z,101854.50
2022-11-29T17:46:34.007Z,101851.88
2022-11-29T17:49:04.474Z,101855.88
2022-11-29T17:54:20.919Z,101865.19
2022-11-29T17:56:48.035Z,101868.41
2022-11-29T17:59:14.891Z,101866.75
2022-11-29T18:01:41.835Z,101871.81
2022-11-29T18:04:08.889Z,101868.41
2022-11-29T18:06:38.760Z,101871.41
2022-11-29T18:09:07.696Z,101879.25
2022-11-29T18:11:46.367Z,101876.41
2022-11-29T18:14:22.847Z,101878.66
2022-11-29T18:16:50.743Z,101879.25
2022-11-29T18:19:21.097Z,101878.66
2022-11-29T18:21:49.429Z,101879.63
2022-11-29T18:24:17.469Z,101883.69
2022-11-29T18:26:44.469Z,101876.44
2022-11-29T18:29:11.721Z,101882.66
2022-11-29T18:31:42.916Z,101887.69
2022-11-29T18:34:11.848Z,101893.53
2022-11-29T18:36:45.243Z,101888.31
2022-11-29T18:39:17.635Z,101885.06
2022-11-29T18:41:48.507Z,101886.88
2022-11-29T18:44:18.082Z,101891.31
2022-11-29T18:46:46.410Z,101892.91
2022-11-29T18:49:18.442Z,101892.53
2022-11-29T18:51:47.405Z,101888.53
2022-11-29T18:54:16.840Z,101894.56
2022-11-29T18:56:45.557Z,101890.13
2022-11-29T18:59:16.810Z,101886.88
2022-11-29T19:01:46.329Z,101884.47
2022-11-29T19:04:19.418Z,101891.31
2022-11-29T19:06:46.901Z,101890.13
2022-11-29T19:09:21.119Z,101901.59
2022-11-29T19:11:49.598Z,101910.03
2022-11-29T19:14:16.614Z,101909.03
2022-11-29T19:16:46.211Z,101901.78
2022-11-29T19:19:13.596Z,101903.00
2022-11-29T19:21:41.296Z,101904.81
2022-11-29T19:24:14.553Z,101904.00
2022-11-29T19:26:44.545Z,101909.84
2022-11-29T19:29:13.005Z,101905.63
2022-11-29T19:31:39.908Z,101910.44
2022-11-29T19:34:06.908Z,101908.59
2022-11-29T19:36:34.170Z,101907.81
2022-11-29T19:39:03.049Z,101909.03
2022-11-29T19:41:35.216Z,101912.66
2022-11-29T19:44:05.830Z,101905.22
2022-11-29T19:46:39.292Z,101909.63
2022-11-29T19:49:08.060Z,101908.00
2022-11-29T19:51:36.272Z,101902.56
2022-11-29T19:54:06.229Z,101900.59
2022-11-29T19:56:33.162Z,101901.78
2022-11-29T19:59:00.454Z,101907.84
2022-11-29T20:01:37.844Z,101904.59
2022-11-29T20:04:07.348Z,101913.66
2022-11-29T20:06:34.464Z,101909.84
2022-11-29T20:09:02.076Z,101918.28
2022-11-29T20:11:29.337Z,101923.53
2022-11-29T20:13:59.157Z,101921.13
2022-11-29T20:16:28.382Z,101924.72
2022-11-29T20:18:58.126Z,101927.97
2022-11-29T20:21:31.136Z,101925.34
2022-11-29T20:24:04.707Z,101932.97
2022-11-29T20:26:35.877Z,101925.53
2022-11-29T20:29:04.567Z,101940.41
2022-11-29T20:31:33.420Z,101934.38
2022-11-29T20:34:00.909Z,101942.44
2022-11-29T20:37:00.912Z,101940.03
2022-11-29T20:39:54.392Z,101937.63
2022-11-29T20:42:46.279Z,101948.09
2022-11-29T20:45:14.756Z,101935.81
2022-11-29T20:47:58.655Z,101945.25
2022-11-29T20:50:29.087Z,101942.03
2022-11-29T20:53:10.745Z,101948.06
2022-11-29T20:55:42.496Z,101944.66
2022-11-29T20:58:13.258Z,101944.44
2022-11-29T21:00:40.182Z,101951.28
2022-11-29T21:03:07.212Z,101946.47
2022-11-29T21:05:37.895Z,101949.28
2022-11-29T21:08:04.995Z,101942.22
2022-11-29T21:10:32.352Z,101952.72
2022-11-29T21:12:59.452Z,101948.88
2022-11-29T21:15:26.990Z,101948.66
2022-11-29T21:17:54.244Z,101947.28
2022-11-29T21:20:24.809Z,101956.34
2022-11-29T21:23:09.889Z,101958.53
2022-11-29T21:25:47.436Z,101958.75
2022-11-29T21:28:16.263Z,101951.72
2022-11-29T21:30:43.850Z,101963.56
2022-11-29T21:33:11.552Z,101962.16
2022-11-29T21:35:39.790Z,101954.31
2022-11-29T21:38:23.297Z,101954.53
2022-11-29T21:40:50.316Z,101949.28
2022-11-29T21:43:17.272Z,101954.31
2022-11-29T21:45:47.649Z,101951.28
2022-11-29T21:48:33.649Z,101952.72
2022-11-29T21:51:01.862Z,101959.13
2022-11-29T21:53:29.204Z,101958.34
2022-11-29T21:55:57.372Z,101958.34
2022-11-29T21:58:25.448Z,101958.13
2022-11-29T22:00:52.964Z,101958.34
2022-11-29T22:03:19.951Z,101954.50
2022-11-29T22:05:47.012Z,101953.69
2022-11-29T22:08:14.112Z,101958.72
2022-11-29T22:10:41.160Z,101952.09
2022-11-29T22:13:08.013Z,101951.69
2022-11-29T22:15:35.018Z,101963.16
2022-11-29T22:18:01.904Z,101968.22
2022-11-29T22:20:28.935Z,101970.63
2022-11-29T22:22:58.805Z,101964.59
2022-11-29T22:25:25.836Z,101964.97
2022-11-29T22:27:52.868Z,101961.75
2022-11-29T22:30:19.794Z,101967.19
2022-11-29T22:32:46.844Z,101963.16
2022-11-29T22:35:13.798Z,101965.78
2022-11-29T22:37:40.847Z,101975.84
2022-11-29T22:40:08.219Z,101970.00
2022-11-29T22:42:35.353Z,101974.22
2022-11-29T22:45:03.989Z,101965.16
2022-11-29T22:47:30.881Z,101980.25
2022-11-29T22:49:57.742Z,101976.44
2022-11-29T22:52:24.628Z,101974.22
2022-11-29T22:54:51.671Z,101977.81
2022-11-29T22:57:18.727Z,101974.63
2022-11-29T22:59:45.577Z,101981.84
2022-11-29T23:02:12.487Z,101975.22
2022-11-29T23:04:39.567Z,101983.66
2022-11-29T23:07:06.441Z,101972.00
2022-11-29T23:09:33.271Z,101983.44
2022-11-29T23:12:00.155Z,101988.88
2022-11-29T23:14:27.189Z,101989.50
2022-11-29T23:16:54.301Z,101984.06
2022-11-29T23:19:21.234Z,101988.72
2022-11-29T23:21:48.103Z,101990.91
2022-11-29T23:24:16.153Z,101989.09
2022-11-29T23:26:45.666Z,102002.81
2022-11-29T23:29:17.933Z,102002.78
2022-11-29T23:31:46.706Z,102005.22
2022-11-29T23:34:14.385Z,101997.34
2022-11-29T23:36:41.646Z,101996.13
2022-11-29T23:39:08.710Z,101990.09
2022-11-29T23:41:36.765Z,101990.69
2022-11-29T23:44:05.480Z,101992.13
2022-11-29T23:46:32.617Z,101992.31
2022-11-29T23:48:59.666Z,101988.09
2022-11-29T23:51:26.722Z,101983.44
2022-11-29T23:53:54.960Z,101985.09
2022-11-29T23:56:22.104Z,101983.06
2022-11-29T23:58:49.302Z,101985.69
